Time;durP1;ratioP1;P1;durP2;ratioP2;P2;SDS_P1;SDS_P2;PMS_P1;PMS_P2;Temp;Humidity;BMP_temperature;BMP_pressure;BME280_temperature;BME280_humidity;BME280_pressure;Samples;Min_cycle;Max_cycle;Signal;HPM_P1;HPM_P2
2022/09/12 00:00:14;;;;;;;9.82;7.50;;;13.40;99.90;;;;;;4913122;29;20031;-87
2022/09/12 00:02:40;;;;;;;8.35;7.43;;;13.40;99.90;;;;;;4913448;29;20130;-87
2022/09/12 00:05:06;;;;;;;9.55;7.55;;;13.40;99.90;;;;;;4913051;29;20499;-87
2022/09/12 00:07:32;;;;;;;15.32;8.13;;;13.40;99.90;;;;;;4912494;29;20043;-87
2022/09/12 00:09:58;;;;;;;8.93;7.40;;;13.40;99.90;;;;;;4912419;29;20048;-88
2022/09/12 00:12:24;;;;;;;8.73;6.95;;;13.30;99.90;;;;;;4912991;29;20047;-88
2022/09/12 00:14:50;;;;;;;7.88;6.53;;;13.30;99.90;;;;;;4913819;29;20051;-87
2022/09/12 00:17:16;;;;;;;12.05;7.50;;;13.30;99.90;;;;;;4911917;29;20087;-87
2022/09/12 00:19:41;;;;;;;9.80;6.72;;;13.20;99.90;;;;;;4919825;29;20075;-87
2022/09/12 00:22:07;;;;;;;9.75;6.75;;;13.20;99.90;;;;;;4931023;29;20047;-87
2022/09/12 00:24:33;;;;;;;7.65;6.30;;;13.20;99.90;;;;;;4931393;29;20047;-87
2022/09/12 00:26:58;;;;;;;9.02;6.57;;;13.20;99.90;;;;;;4932526;29;20039;-87
2022/09/12 00:29:24;;;;;;;10.90;7.13;;;13.10;99.90;;;;;;4931675;29;20428;-88
2022/09/12 00:31:50;;;;;;;10.48;8.10;;;13.10;99.90;;;;;;4932088;29;20077;-88
2022/09/12 00:34:15;;;;;;;9.50;7.63;;;13.00;99.90;;;;;;4933460;29;20070;-88
2022/09/12 00:36:41;;;;;;;9.65;8.23;;;13.00;99.90;;;;;;4934987;29;20059;-88
2022/09/12 00:39:08;;;;;;;11.40;7.30;;;13.00;99.90;;;;;;4934671;29;20057;-87
2022/09/12 00:41:36;;;;;;;13.02;8.27;;;13.00;99.90;;;;;;4934942;29;20057;-87
2022/09/12 00:44:22;;;;;;;8.20;7.05;;;13.00;99.90;;;;;;4932311;29;20122;-87
2022/09/12 00:46:51;;;;;;;11.63;8.57;;;13.00;99.90;;;;;;4931890;29;20094;-88
2022/09/12 00:49:33;;;;;;;10.02;7.07;;;12.90;99.90;;;;;;4932244;29;20502;-88
2022/09/12 00:52:07;;;;;;;11.30;7.55;;;12.90;99.90;;;;;;4931423;29;20099;-88
2022/09/12 00:54:37;;;;;;;10.65;7.18;;;12.90;99.90;;;;;;4910514;29;20044;-88
2022/09/12 00:57:08;;;;;;;10.35;7.03;;;12.90;99.90;;;;;;4913223;29;20043;-88
2022/09/12 00:59:40;;;;;;;9.32;7.20;;;12.90;99.90;;;;;;4912513;29;20054;-88
2022/09/12 01:02:06;;;;;;;9.50;7.80;;;12.80;99.90;;;;;;4913371;29;20048;-88
2022/09/12 01:04:35;;;;;;;10.60;7.93;;;12.80;99.90;;;;;;4912964;29;20048;-87
2022/09/12 01:07:03;;;;;;;9.75;7.13;;;12.70;99.90;;;;;;4911981;29;20048;-88
2022/09/12 01:09:29;;;;;;;9.23;6.25;;;12.70;99.90;;;;;;4912541;29;20047;-87
2022/09/12 01:11:56;;;;;;;7.72;6.38;;;12.60;99.90;;;;;;4929075;29;20044;-87
2022/09/12 01:14:22;;;;;;;8.52;6.13;;;12.60;99.90;;;;;;4912133;29;20048;-87
2022/09/12 01:16:49;;;;;;;10.80;6.68;;;12.60;99.90;;;;;;4913244;29;20079;-88
2022/09/12 01:19:37;;;;;;;9.70;6.70;;;12.50;99.90;;;;;;4913039;29;20048;-88
2022/09/12 01:22:39;;;;;;;9.85;6.80;;;12.50;99.90;;;;;;4912218;29;20051;-88
2022/09/12 01:25:28;;;;;;;10.43;7.32;;;12.40;99.90;;;;;;4913088;29;20508;-88
2022/09/12 01:28:00;;;;;;;11.48;9.05;;;12.40;99.90;;;;;;4912359;29;20446;-88
2022/09/12 01:30:48;;;;;;;12.98;8.93;;;12.40;99.90;;;;;;4912593;29;20052;-89
2022/09/12 01:33:21;;;;;;;12.82;8.95;;;12.40;99.90;;;;;;4912999;29;20073;-88
2022/09/12 01:36:00;;;;;;;14.23;8.65;;;12.40;99.90;;;;;;4896233;29;20048;-88
2022/09/12 01:38:39;;;;;;;11.05;9.35;;;12.40;99.90;;;;;;4912697;29;20052;-88
2022/09/12 01:41:05;;;;;;;11.93;9.80;;;12.40;99.90;;;;;;4912490;29;20052;-88
2022/09/12 01:43:50;;;;;;;11.65;9.35;;;12.40;99.90;;;;;;4896875;29;20077;-89
2022/09/12 01:46:28;;;;;;;11.30;9.05;;;12.40;99.90;;;;;;4911798;29;20160;-88
2022/09/12 01:49:01;;;;;;;15.05;10.40;;;12.40;99.90;;;;;;4912422;29;20059;-88
2022/09/12 01:51:34;;;;;;;10.77;9.43;;;12.40;99.90;;;;;;4912046;29;20079;-89
2022/09/12 01:54:08;;;;;;;11.68;10.45;;;12.40;99.90;;;;;;4913332;29;20060;-88
2022/09/12 01:56:38;;;;;;;12.95;11.10;;;12.40;99.90;;;;;;4912361;29;20044;-89
2022/09/12 01:59:14;;;;;;;14.73;10.23;;;12.30;99.90;;;;;;4912758;29;20111;-89
2022/09/12 02:01:47;;;;;;;12.32;10.95;;;12.40;99.90;;;;;;4912563;29;20087;-88
2022/09/12 02:04:18;;;;;;;13.88;11.77;;;12.30;99.90;;;;;;4912718;29;20052;-89
2022/09/12 02:06:47;;;;;;;15.73;12.07;;;12.30;99.90;;;;;;4912355;29;20044;-88
2022/09/12 02:09:22;;;;;;;17.42;12.98;;;12.30;99.90;;;;;;4912030;29;20564;-89
2022/09/12 02:11:51;;;;;;;14.07;12.57;;;12.30;99.90;;;;;;4912754;29;20139;-89
2022/09/12 02:14:26;;;;;;;16.58;12.52;;;12.30;99.90;;;;;;4912557;29;20048;-90
2022/09/12 02:16:57;;;;;;;16.27;11.50;;;12.30;99.90;;;;;;4912334;29;20502;-89
2022/09/12 02:19:28;;;;;;;17.20;12.88;;;12.30;99.90;;;;;;4912158;29;20052;-89
2022/09/12 02:21:59;;;;;;;13.65;9.93;;;12.30;99.90;;;;;;4912137;29;20044;-89
2022/09/12 02:24:30;;;;;;;13.65;11.45;;;12.30;99.90;;;;;;4911623;29;20489;-89
2022/09/12 02:27:02;;;;;;;12.50;10.35;;;12.20;99.90;;;;;;4896257;29;20048;-89
2022/09/12 02:29:29;;;;;;;13.02;11.63;;;12.30;99.90;;;;;;4912786;29;20044;-89
2022/09/12 02:31:59;;;;;;;12.45;10.90;;;12.20;99.90;;;;;;4911676;29;20051;-89
2022/09/12 02:34:38;;;;;;;18.17;13.45;;;12.20;99.90;;;;;;4911953;29;20048;-89
2022/09/12 02:37:10;;;;;;;15.77;12.57;;;12.20;99.90;;;;;;4910894;29;20052;-89
2022/09/12 02:39:35;;;;;;;12.52;11.00;;;12.20;99.90;;;;;;4912039;29;20052;-87
2022/09/12 02:42:02;;;;;;;14.93;11.90;;;12.10;99.90;;;;;;4912545;29;20234;-87
2022/09/12 02:44:30;;;;;;;12.18;10.15;;;12.20;99.90;;;;;;4930302;29;20054;-87
2022/09/12 02:47:03;;;;;;;10.23;9.23;;;12.10;99.90;;;;;;4915299;29;20448;-86
2022/09/12 02:49:29;;;;;;;;;;;12.10;99.90;;;;;;4916320;29;20055;-87
2022/09/12 02:51:55;;;;;;;6.63;5.47;;;12.10;99.90;;;;;;4914503;29;19926;-87
2022/09/12 02:54:21;;;;;;;7.85;5.80;;;12.10;99.90;;;;;;4914416;29;20047;-88
2022/09/12 02:56:46;;;;;;;6.63;5.43;;;12.10;99.90;;;;;;4914683;29;20055;-87
2022/09/12 02:59:17;;;;;;;5.70;5.00;;;12.10;99.90;;;;;;4914780;29;20052;-89
2022/09/12 03:01:51;;;;;;;7.80;6.50;;;12.00;99.90;;;;;;4915112;29;20052;-87
2022/09/12 03:04:33;;;;;;;10.55;9.30;;;12.00;99.90;;;;;;4914722;29;20547;-87
2022/09/12 03:07:30;;;;;;;11.95;9.38;;;12.00;99.90;;;;;;4914262;29;20051;-87
2022/09/12 03:10:02;;;;;;;13.45;11.30;;;12.00;99.90;;;;;;4924848;29;20110;-87
2022/09/12 03:12:45;;;;;;;22.40;17.38;;;11.90;99.90;;;;;;4914272;29;20139;-87
2022/09/12 03:15:20;;;;;;;19.70;16.23;;;12.00;99.90;;;;;;4930621;29;20586;-87
2022/09/12 03:17:59;;;;;;;17.92;13.98;;;12.00;99.90;;;;;;4930804;29;20491;-88
2022/09/12 03:20:40;;;;;;;16.27;14.57;;;11.90;99.90;;;;;;4928816;29;20039;-88
2022/09/12 03:23:28;;;;;;;22.15;15.73;;;11.90;99.90;;;;;;4930869;29;20047;-88
2022/09/12 03:26:02;;;;;;;14.57;12.80;;;11.90;99.90;;;;;;4930686;29;20055;-88
2022/09/12 03:28:29;;;;;;;14.95;11.63;;;11.80;99.90;;;;;;4930129;29;20039;-88
2022/09/12 03:30:55;;;;;;;16.55;11.95;;;11.80;99.90;;;;;;4930920;29;20051;-88
2022/09/12 03:33:24;;;;;;;14.15;12.65;;;11.80;99.90;;;;;;4898576;29;20146;-88
2022/09/12 03:35:51;;;;;;;14.63;12.80;;;11.70;99.90;;;;;;4930044;29;20070;-88
2022/09/12 03:38:17;;;;;;;15.65;12.90;;;11.70;99.90;;;;;;4930857;29;20047;-88
2022/09/12 03:40:43;;;;;;;16.05;14.45;;;11.70;99.90;;;;;;4929370;29;20044;-88
2022/09/12 03:43:09;;;;;;;17.13;12.98;;;11.70;99.90;;;;;;4930530;29;20088;-87
2022/09/12 03:45:37;;;;;;;20.17;12.90;;;11.70;99.90;;;;;;4932680;29;20487;-88
2022/09/12 03:48:04;;;;;;;16.35;12.88;;;11.70;99.90;;;;;;4932451;29;20050;-88
2022/09/12 03:50:30;;;;;;;10.68;8.95;;;11.70;99.90;;;;;;4932480;29;20140;-88
2022/09/12 03:52:58;;;;;;;14.15;12.73;;;11.70;99.90;;;;;;4933332;29;20180;-87
2022/09/12 03:55:25;;;;;;;13.90;12.55;;;11.70;99.90;;;;;;4932196;29;20051;-88
2022/09/12 03:57:53;;;;;;;12.02;10.82;;;11.70;99.90;;;;;;4932915;29;20138;-88
2022/09/12 04:00:19;;;;;;;11.30;10.10;;;11.70;99.90;;;;;;4932694;29;20086;-88
2022/09/12 04:02:44;;;;;;;10.40;9.18;;;11.70;99.90;;;;;;4932670;29;20082;-89
2022/09/12 04:05:10;;;;;;;43.72;12.55;;;11.60;99.90;;;;;;4932906;29;20079;-88
2022/09/12 04:07:36;;;;;;;13.70;11.27;;;11.60;99.90;;;;;;4932700;28;20476;-88
2022/09/12 04:10:02;;;;;;;15.85;14.15;;;11.70;99.90;;;;;;4934918;29;20487;-88
2022/09/12 04:12:28;;;;;;;15.77;12.27;;;11.60;99.90;;;;;;4936102;29;20048;-88
2022/09/12 04:14:54;;;;;;;15.52;13.27;;;11.70;99.90;;;;;;4932797;29;20051;-87
2022/09/12 04:17:20;;;;;;;16.20;13.98;;;11.70;99.90;;;;;;4916186;29;20180;-88
2022/09/12 04:19:45;;;;;;;12.77;11.05;;;11.70;99.90;;;;;;4918380;29;20051;-87
2022/09/12 04:22:11;;;;;;;17.83;15.38;;;11.70;99.90;;;;;;4900449;29;20602;-88
2022/09/12 04:24:37;;;;;;;14.65;12.98;;;11.60;99.90;;;;;;4900530;29;20106;-87
2022/09/12 04:27:02;;;;;;;15.48;12.75;;;11.60;99.90;;;;;;4902069;29;20082;-88
2022/09/12 04:29:30;;;;;;;74.18;21.25;;;11.70;99.90;;;;;;4900504;29;20044;-88
2022/09/12 04:31:56;;;;;;;21.25;16.75;;;11.70;99.90;;;;;;4900694;29;20043;-87
2022/09/12 04:34:22;;;;;;;19.33;15.40;;;11.70;99.90;;;;;;4900391;29;20052;-87
2022/09/12 04:36:47;;;;;;;18.77;14.88;;;11.70;99.90;;;;;;4899965;29;20075;-88
2022/09/12 04:39:13;;;;;;;17.17;14.65;;;11.70;99.90;;;;;;4900579;29;20039;-87
2022/09/12 04:41:40;;;;;;;20.73;12.93;;;11.70;99.90;;;;;;4900812;29;20224;-87
2022/09/12 04:44:10;;;;;;;13.98;12.18;;;11.70;99.90;;;;;;4862215;29;1149706;-87
2022/09/12 04:46:39;;;;;;;16.13;13.75;;;11.70;99.90;;;;;;4917483;29;20060;-87
2022/09/12 04:49:05;;;;;;;18.33;14.23;;;11.70;99.90;;;;;;4901370;29;20040;-87
2022/09/12 04:51:33;;;;;;;16.40;13.80;;;11.80;99.90;;;;;;4900107;29;20048;-87
2022/09/12 04:54:02;;;;;;;16.77;13.45;;;11.90;99.90;;;;;;4901819;29;20066;-87
2022/09/12 04:56:29;;;;;;;15.18;11.93;;;11.90;99.90;;;;;;4917048;29;20563;-87
2022/09/12 04:58:58;;;;;;;13.35;11.48;;;12.00;99.90;;;;;;4901808;29;20447;-87
2022/09/12 05:01:24;;;;;;;13.75;11.50;;;12.00;99.90;;;;;;4901445;29;20134;-87
2022/09/12 05:03:50;;;;;;;18.67;14.13;;;12.10;99.90;;;;;;4902119;29;20477;-89
2022/09/12 05:06:20;;;;;;;17.58;14.05;;;12.10;99.90;;;;;;4900595;29;20036;-89
2022/09/12 05:08:46;;;;;;;17.20;13.80;;;12.20;99.90;;;;;;4901855;29;20602;-88
2022/09/12 05:11:14;;;;;;;19.25;15.43;;;12.20;99.90;;;;;;4917365;29;20048;-89
2022/09/12 05:13:41;;;;;;;20.95;16.92;;;12.30;99.90;;;;;;4916947;29;20047;-88
2022/09/12 05:16:08;;;;;;;33.78;22.85;;;12.30;99.90;;;;;;4916921;29;20089;-88
2022/09/12 05:18:35;;;;;;;26.65;20.48;;;12.40;99.90;;;;;;4917335;29;20095;-88
2022/09/12 05:21:04;;;;;;;36.42;24.70;;;12.50;99.90;;;;;;4916195;29;20515;-88
2022/09/12 05:23:31;;;;;;;30.63;23.52;;;12.50;99.90;;;;;;4916214;29;20516;-89
2022/09/12 05:25:58;;;;;;;30.92;22.65;;;12.70;99.90;;;;;;4916311;29;20051;-88
2022/09/12 05:28:28;;;;;;;29.10;22.50;;;12.70;99.90;;;;;;4916632;29;20106;-88
2022/09/12 05:31:05;;;;;;;32.95;22.88;;;12.80;99.90;;;;;;4910762;29;20043;-88
2022/09/12 05:33:34;;;;;;;32.88;22.95;;;12.90;99.90;;;;;;4911043;29;20089;-87
2022/09/12 05:36:00;;;;;;;34.22;25.35;;;13.00;99.90;;;;;;4910804;29;20048;-88
2022/09/12 05:38:28;;;;;;;41.90;27.83;;;13.00;99.90;;;;;;4911287;29;20609;-88
2022/09/12 05:41:06;;;;;;;46.47;30.00;;;13.10;99.90;;;;;;4909279;29;20389;-88
2022/09/12 05:43:33;;;;;;;46.40;29.75;;;13.10;99.90;;;;;;4910045;29;20123;-88
2022/09/12 05:46:01;;;;;;;41.30;27.77;;;13.20;99.90;;;;;;4908794;29;20055;-88
2022/09/12 05:48:27;;;;;;;37.38;26.77;;;13.20;99.90;;;;;;4907243;29;20155;-88
2022/09/12 05:51:00;;;;;;;44.70;30.42;;;13.30;99.90;;;;;;4906295;29;20036;-88
2022/09/12 05:53:27;;;;;;;46.58;29.75;;;13.30;99.90;;;;;;4892061;29;20048;-87
2022/09/12 05:56:03;;;;;;;40.22;27.80;;;13.40;99.90;;;;;;4888994;29;20055;-88
2022/09/12 05:58:29;;;;;;;43.33;28.63;;;13.40;99.90;;;;;;4897108;29;20052;-88
2022/09/12 06:00:56;;;;;;;37.35;26.80;;;13.50;99.90;;;;;;4906816;29;20051;-87
2022/09/12 06:03:22;;;;;;;42.50;28.85;;;13.50;99.90;;;;;;4905543;29;20085;-88
2022/09/12 06:05:47;;;;;;;43.30;29.27;;;13.50;99.90;;;;;;4906617;29;20518;-88
2022/09/12 06:08:13;;;;;;;40.60;28.38;;;13.60;99.90;;;;;;4905892;29;20135;-88
2022/09/12 06:10:39;;;;;;;37.42;25.88;;;13.60;99.90;;;;;;4905221;29;20511;-88
2022/09/12 06:13:04;;;;;;;44.70;30.48;;;13.60;99.90;;;;;;4907825;29;20133;-87
2022/09/12 06:15:31;;;;;;;39.17;26.83;;;13.70;99.90;;;;;;4915620;29;20398;-88
2022/09/12 06:17:57;;;;;;;40.85;28.92;;;13.70;99.90;;;;;;4916161;29;20119;-88
2022/09/12 06:20:23;;;;;;;38.47;28.88;;;13.80;99.90;;;;;;4915304;29;20043;-88
2022/09/12 06:22:52;;;;;;;44.10;28.27;;;13.80;99.90;;;;;;4915178;29;20070;-88
2022/09/12 06:25:18;;;;;;;41.65;28.63;;;13.90;99.90;;;;;;4915509;29;20051;-88
2022/09/12 06:27:46;;;;;;;37.75;26.92;;;14.00;99.90;;;;;;4915902;29;20058;-89
2022/09/12 06:30:12;;;;;;;38.75;27.45;;;14.10;99.90;;;;;;4915145;29;20110;-87
2022/09/12 06:32:38;;;;;;;37.53;26.90;;;14.10;99.90;;;;;;4912403;29;20047;-88
2022/09/12 06:35:04;;;;;;;47.63;29.58;;;14.20;99.90;;;;;;4912334;29;20038;-88
2022/09/12 06:37:30;;;;;;;40.72;29.30;;;14.20;99.90;;;;;;4910652;29;20054;-87
2022/09/12 06:39:56;;;;;;;40.08;28.75;;;14.30;99.90;;;;;;4912601;29;20523;-88
2022/09/12 06:42:22;;;;;;;42.20;29.15;;;14.30;99.90;;;;;;4915446;29;20653;-88
2022/09/12 06:44:49;;;;;;;43.88;30.30;;;14.40;99.90;;;;;;4914910;29;20163;-88
2022/09/12 06:47:15;;;;;;;47.30;29.70;;;14.50;99.90;;;;;;4915250;29;20053;-87
2022/09/12 06:49:40;;;;;;;48.70;30.40;;;14.50;99.90;;;;;;4915328;29;20048;-88
2022/09/12 06:52:06;;;;;;;48.80;30.67;;;14.50;99.90;;;;;;4914028;29;20047;-88
2022/09/12 06:54:32;;;;;;;45.20;30.10;;;14.60;99.90;;;;;;4915965;29;20491;-88
2022/09/12 06:56:57;;;;;;;42.50;29.58;;;14.60;99.90;;;;;;4915798;29;20486;-88
2022/09/12 06:59:23;;;;;;;51.53;31.60;;;14.60;99.90;;;;;;4914666;29;20044;-89
2022/09/12 07:02:09;;;;;;;46.60;30.63;;;14.60;99.90;;;;;;4915911;29;20043;-89
2022/09/12 07:04:35;;;;;;;50.25;31.20;;;14.70;99.90;;;;;;4889151;29;20853;-88
2022/09/12 07:07:01;;;;;;;49.05;32.63;;;14.70;99.90;;;;;;4936548;23;20055;-96
2022/09/12 07:09:29;;;;;;;52.30;31.55;;;14.70;99.90;;;;;;4940007;29;20094;-91
2022/09/12 07:11:55;;;;;;;49.85;32.97;;;14.80;99.90;;;;;;4922820;29;20476;-91
2022/09/12 07:14:21;;;;;;;49.50;31.38;;;14.90;99.90;;;;;;4923660;29;20055;-93
2022/09/12 07:16:46;;;;;;;52.83;32.83;;;14.90;99.90;;;;;;4924294;29;20055;-92
2022/09/12 07:19:12;;;;;;;51.65;35.22;;;14.90;99.90;;;;;;4922694;29;20409;-94
2022/09/12 07:21:39;;;;;;;51.22;34.25;;;15.00;99.90;;;;;;4923572;29;20051;-93
2022/09/12 07:24:07;;;;;;;53.00;32.33;;;15.00;99.90;;;;;;4924917;29;20050;-94
2022/09/12 07:26:33;;;;;;;52.92;33.83;;;15.10;99.90;;;;;;4922485;29;20050;-93
2022/09/12 07:28:59;;;;;;;59.33;34.97;;;15.20;99.90;;;;;;4902902;29;20043;-93
2022/09/12 07:31:26;;;;;;;50.58;34.90;;;15.40;99.90;;;;;;4903050;29;20130;-96
2022/09/12 07:33:52;;;;;;;56.38;34.38;;;15.40;99.90;;;;;;4905421;29;20207;-96
2022/09/12 07:36:21;;;;;;;58.72;36.10;;;15.50;99.90;;;;;;4904050;29;20083;-95
2022/09/12 07:38:47;;;;;;;58.22;34.70;;;15.60;99.90;;;;;;4904961;29;20066;-95
2022/09/12 07:41:17;;;;;;;54.75;34.92;;;15.70;99.90;;;;;;4905484;29;20051;-95
2022/09/12 07:43:43;;;;;;;56.55;35.38;;;15.80;99.90;;;;;;4908827;29;20082;-93
2022/09/12 07:46:10;;;;;;;51.55;33.78;;;15.90;99.90;;;;;;4922636;29;20464;-94
2022/09/12 07:48:37;;;;;;;54.80;34.53;;;15.90;99.90;;;;;;4922804;29;20137;-95
2022/09/12 07:51:05;;;;;;;52.38;34.45;;;16.00;99.90;;;;;;4922924;29;20160;-94
2022/09/12 07:53:34;;;;;;;55.40;34.47;;;16.00;99.90;;;;;;4923478;29;20082;-95
2022/09/12 07:56:01;;;;;;;51.70;34.35;;;16.10;99.90;;;;;;4941900;23;20052;-86
2022/09/12 07:58:29;;;;;;;56.42;34.15;;;16.10;99.90;;;;;;4929003;29;20060;-86
2022/09/12 08:01:02;;;;;;;50.50;33.55;;;16.10;99.90;;;;;;4928275;29;20048;-86
2022/09/12 08:03:28;;;;;;;49.70;34.13;;;16.20;99.90;;;;;;4928973;29;20119;-85
2022/09/12 08:05:54;;;;;;;52.53;34.53;;;16.20;99.90;;;;;;4912335;29;20056;-85
2022/09/12 08:08:19;;;;;;;51.47;34.53;;;16.20;99.90;;;;;;4927780;29;20056;-86
2022/09/12 08:10:45;;;;;;;54.17;33.88;;;16.30;99.90;;;;;;4913220;29;20135;-86
2022/09/12 08:13:11;;;;;;;51.92;34.60;;;16.40;99.90;;;;;;4944728;29;20503;-86
2022/09/12 08:15:36;;;;;;;49.17;33.40;;;16.40;99.90;;;;;;4944493;29;20048;-86
2022/09/12 08:18:02;;;;;;;46.58;33.83;;;16.50;99.90;;;;;;4929123;29;20142;-87
2022/09/12 08:20:28;;;;;;;50.83;33.08;;;16.60;99.90;;;;;;4928751;29;20058;-87
2022/09/12 08:22:54;;;;;;;47.60;32.58;;;16.60;99.90;;;;;;4922950;29;20048;-88
2022/09/12 08:25:20;;;;;;;44.97;30.95;;;16.70;99.90;;;;;;4906754;29;20059;-87
2022/09/12 08:27:45;;;;;;;43.03;29.75;;;16.70;99.90;;;;;;4892702;29;20131;-87
2022/09/12 08:30:12;;;;;;;42.92;30.70;;;16.70;99.90;;;;;;4890911;29;20138;-87
2022/09/12 08:32:38;;;;;;;46.13;30.05;;;16.80;99.90;;;;;;4908051;29;20052;-87
2022/09/12 08:35:04;;;;;;;38.83;27.27;;;16.90;99.90;;;;;;4923654;29;20059;-87
2022/09/12 08:37:30;;;;;;;44.13;28.10;;;16.90;99.90;;;;;;4905687;29;20531;-87
2022/09/12 08:39:56;;;;;;;42.10;26.70;;;17.00;99.90;;;;;;4924260;29;20049;-86
2022/09/12 08:42:47;;;;;;;36.70;25.88;;;17.00;99.90;;;;;;4922985;29;20054;-87
2022/09/12 08:45:21;;;;;;;38.53;26.45;;;17.20;99.90;;;;;;4892416;29;20048;-86
2022/09/12 08:47:49;;;;;;;39.33;25.25;;;17.30;99.90;;;;;;4923688;29;20496;-87
2022/09/12 08:50:17;;;;;;;35.88;25.52;;;17.40;99.90;;;;;;4922417;29;20048;-87
2022/09/12 08:52:44;;;;;;;35.88;25.88;;;17.50;99.90;;;;;;4907286;29;20944;-88
2022/09/12 08:55:29;;;;;;;35.30;23.95;;;17.60;99.90;;;;;;4893431;29;20044;-87
2022/09/12 08:57:57;;;;;;;35.72;23.88;;;17.90;99.90;;;;;;4928694;29;20059;-87
2022/09/12 09:00:23;;;;;;;37.33;23.65;;;17.80;99.90;;;;;;4916169;29;20048;-87
2022/09/12 09:03:00;;;;;;;37.53;22.77;;;17.90;99.90;;;;;;4917539;29;20504;-87
2022/09/12 09:18:54;;;;;;;29.95;21.90;;;18.40;99.90;;;;;;4987123;23;20140;-94
2022/09/12 09:21:29;;;;;;;30.55;21.63;;;18.50;99.90;;;;;;4938007;29;20043;-93
2022/09/12 09:24:03;;;;;;;33.50;22.73;;;18.50;99.90;;;;;;4922466;29;20047;-93
2022/09/12 09:26:37;;;;;;;35.42;22.25;;;18.60;99.90;;;;;;4922329;29;20047;-92
2022/09/12 09:29:16;;;;;;;32.88;22.17;;;18.50;99.90;;;;;;4925542;29;20400;-95
2022/09/12 09:31:47;;;;;;;33.15;22.42;;;18.50;99.90;;;;;;4922360;29;20051;-96
2022/09/12 09:34:21;;;;;;;31.83;23.38;;;18.60;99.90;;;;;;4924181;29;20047;-95
2022/09/12 09:37:04;;;;;;;33.17;22.52;;;18.60;99.90;;;;;;4923541;29;20071;-95
2022/09/12 09:39:51;;;;;;;36.60;23.73;;;18.70;99.90;;;;;;4921512;29;20139;-96
2022/09/12 09:42:30;;;;;;;33.80;22.95;;;18.70;99.90;;;;;;4923406;29;20032;-95
2022/09/12 09:45:01;;;;;;;36.50;23.30;;;18.70;99.90;;;;;;4921535;29;20102;-96
2022/09/12 09:47:27;;;;;;;34.55;22.83;;;18.80;99.90;;;;;;4937492;29;20036;-95
2022/09/12 09:49:52;;;;;;;35.15;23.27;;;18.90;99.90;;;;;;4937286;29;20047;-96
2022/09/12 09:52:27;;;;;;;36.28;22.73;;;19.00;99.90;;;;;;4938913;29;20058;-95
2022/09/12 09:54:58;;;;;;;35.15;21.95;;;19.10;99.90;;;;;;4936601;29;20449;-95
2022/09/12 09:57:34;;;;;;;42.25;21.67;;;19.30;99.90;;;;;;4936661;29;20047;-96
2022/09/12 10:00:20;;;;;;;35.42;21.85;;;19.50;99.90;;;;;;4922434;29;20047;-96
2022/09/12 10:03:08;;;;;;;31.42;21.50;;;19.60;99.90;;;;;;4937873;29;20047;-95
2022/09/12 10:05:45;;;;;;;32.00;21.98;;;19.70;99.90;;;;;;4921122;29;20048;-96
2022/09/12 10:08:22;;;;;;;31.80;20.88;;;19.70;99.90;;;;;;4936965;29;20051;-96
2022/09/12 10:10:54;;;;;;;37.35;24.13;;;19.80;99.90;;;;;;4938155;29;20055;-95
2022/09/12 10:13:36;;;;;;;33.97;21.83;;;19.80;99.90;;;;;;4923027;29;20051;-95
2022/09/12 10:16:15;;;;;;;38.58;24.15;;;20.00;99.90;;;;;;4938741;29;20051;-95
2022/09/12 10:18:41;;;;;;;41.72;24.50;;;20.10;99.90;;;;;;4938551;29;20079;-95
2022/09/12 10:21:19;;;;;;;33.63;22.85;;;20.20;99.90;;;;;;4921729;29;20048;-96
2022/09/12 10:23:46;;;;;;;37.47;24.60;;;20.40;99.90;;;;;;4937929;29;20119;-96
2022/09/12 10:26:15;;;;;;;33.58;22.83;;;20.50;99.90;;;;;;4936795;29;20052;-96
2022/09/12 10:28:45;;;;;;;35.17;23.60;;;20.60;99.90;;;;;;4939261;29;20052;-95
2022/09/12 10:31:41;;;;;;;35.03;22.88;;;20.80;99.90;;;;;;4920767;29;20048;-96
2022/09/12 10:34:21;;;;;;;35.10;22.65;;;20.90;99.90;;;;;;4937589;29;20043;-96
2022/09/12 10:36:47;;;;;;;37.00;23.95;;;20.90;99.90;;;;;;4921300;29;20036;-96
2022/09/12 10:39:18;;;;;;;32.15;22.60;;;20.90;99.90;;;;;;4921440;29;20052;-95
2022/09/12 10:41:45;;;;;;;38.30;22.80;;;20.80;99.90;;;;;;4925194;29;20487;-96
2022/09/12 10:44:17;;;;;;;31.25;21.50;;;20.90;99.90;;;;;;4923327;29;20051;-96
2022/09/12 10:46:44;;;;;;;31.53;19.97;;;20.90;99.90;;;;;;4922141;29;20584;-96
2022/09/12 10:49:19;;;;;;;30.17;18.83;;;21.10;99.90;;;;;;4919753;29;20051;-96
2022/09/12 10:51:45;;;;;;;27.02;17.50;;;21.20;99.90;;;;;;4921357;29;20043;-96
2022/09/12 10:54:12;;;;;;;33.05;18.58;;;21.40;99.90;;;;;;4925166;29;20055;-96
2022/09/12 10:56:40;;;;;;;30.98;19.83;;;21.40;99.90;;;;;;4920214;29;20047;-95
2022/09/12 10:59:17;;;;;;;29.73;18.65;;;21.50;99.90;;;;;;4921216;29;20062;-96
2022/09/12 11:01:47;;;;;;;32.67;18.70;;;21.50;99.90;;;;;;4919828;29;20079;-96
2022/09/12 11:04:19;;;;;;;31.05;18.08;;;21.50;99.90;;;;;;4920644;29;20040;-96
2022/09/12 11:07:21;;;;;;;30.02;18.25;;;21.60;99.90;;;;;;4919374;29;20047;-96
2022/09/12 11:10:01;;;;;;;30.33;17.15;;;21.60;99.90;;;;;;4919451;29;20051;-96
2022/09/12 11:12:39;;;;;;;28.80;18.00;;;21.60;99.90;;;;;;4936196;28;20048;-95
2022/09/12 11:15:25;;;;;;;25.73;15.68;;;21.60;99.90;;;;;;4919713;29;20086;-96
2022/09/12 11:18:05;;;;;;;26.63;15.00;;;21.60;99.90;;;;;;4919915;29;20106;-95
2022/09/12 11:20:41;;;;;;;35.05;18.33;;;21.70;99.90;;;;;;4920570;29;20111;-96
2022/09/12 11:23:26;;;;;;;25.73;15.23;;;21.40;99.90;;;;;;4920545;29;20036;-95
2022/09/12 11:25:58;;;;;;;27.48;16.98;;;21.70;99.90;;;;;;4922847;29;20473;-95
2022/09/12 11:28:39;;;;;;;30.67;16.83;;;21.70;99.90;;;;;;4920571;29;20054;-95
2022/09/12 11:31:15;;;;;;;26.90;17.67;;;21.80;99.90;;;;;;4935283;29;20476;-96
2022/09/12 11:33:50;;;;;;;26.30;15.90;;;21.80;99.90;;;;;;4919692;29;20063;-96
2022/09/12 11:36:29;;;;;;;22.90;15.38;;;21.80;99.90;;;;;;4937568;29;20031;-96
2022/09/12 11:39:07;;;;;;;23.98;13.95;;;21.60;99.90;;;;;;4920283;29;20047;-95
2022/09/12 11:41:39;;;;;;;25.17;14.50;;;21.90;99.90;;;;;;4935703;29;20094;-96
2022/09/12 11:44:22;;;;;;;27.70;16.23;;;21.90;99.90;;;;;;4933242;29;20092;-96
2022/09/12 11:46:48;;;;;;;22.58;14.43;;;21.90;99.90;;;;;;4933621;29;20059;-96
2022/09/12 11:49:30;;;;;;;18.65;12.20;;;21.90;99.90;;;;;;4932486;29;20044;-95
2022/09/12 11:52:06;;;;;;;22.33;12.05;;;21.90;99.90;;;;;;4933365;29;20059;-95
2022/09/12 11:54:52;;;;;;;20.98;12.27;;;21.80;99.90;;;;;;4902163;29;20040;-96
2022/09/12 11:57:39;;;;;;;22.67;13.27;;;21.80;99.90;;;;;;4932792;29;20044;-95
2022/09/12 12:00:16;;;;;;;19.90;11.57;;;21.90;99.90;;;;;;4914492;29;20497;-94
2022/09/12 12:03:22;;;;;;;17.98;11.35;;;22.00;99.90;;;;;;4932085;29;20044;-94
2022/09/12 12:05:56;;;;;;;13.88;8.02;;;22.10;99.90;;;;;;4932277;29;20043;-92
2022/09/12 12:08:24;;;;;;;11.93;7.00;;;22.20;99.90;;;;;;4946107;29;20394;-91
2022/09/12 12:10:56;;;;;;;12.93;7.40;;;22.20;99.90;;;;;;4932052;29;20417;-93
2022/09/12 12:13:30;;;;;;;14.17;7.87;;;22.30;99.90;;;;;;4898727;29;20253;-94
2022/09/12 12:16:02;;;;;;;14.25;8.63;;;22.30;99.90;;;;;;4930477;29;20501;-92
2022/09/12 12:18:30;;;;;;;15.23;8.82;;;22.40;99.90;;;;;;4930427;29;20060;-92
2022/09/12 12:21:20;;;;;;;12.95;8.70;;;22.40;99.90;;;;;;4930373;29;20084;-93
2022/09/12 12:24:05;;;;;;;15.18;8.98;;;22.30;99.90;;;;;;4930630;29;20056;-93
2022/09/12 12:26:37;;;;;;;14.05;9.45;;;22.30;99.90;;;;;;4946118;29;20052;-91
2022/09/12 12:29:08;;;;;;;19.02;10.93;;;22.30;99.90;;;;;;4945111;28;20489;-93
2022/09/12 12:31:58;;;;;;;17.48;11.45;;;22.30;99.90;;;;;;4932842;29;20187;-92
2022/09/12 12:34:36;;;;;;;15.95;9.02;;;22.50;99.90;;;;;;4940283;29;20104;-92
2022/09/12 12:37:18;;;;;;;12.85;7.00;;;22.60;99.90;;;;;;4917826;29;20048;-93
2022/09/12 12:39:51;;;;;;;15.17;8.10;;;22.70;99.90;;;;;;4902209;29;20568;-93
2022/09/12 12:42:33;;;;;;;11.98;7.43;;;22.60;99.90;;;;;;4900437;29;20352;-93
2022/09/12 12:45:02;;;;;;;11.97;7.10;;;22.50;99.90;;;;;;4902902;29;20052;-92
2022/09/12 12:47:32;;;;;;;14.18;6.43;;;22.50;99.90;;;;;;4917702;29;20052;-93
2022/09/12 12:50:03;;;;;;;11.93;6.05;;;22.50;99.90;;;;;;4918299;29;20044;-94
2022/09/12 12:52:32;;;;;;;10.38;4.72;;;22.50;99.90;;;;;;4918630;29;20048;-93
2022/09/12 12:55:00;;;;;;;11.07;6.40;;;22.50;99.90;;;;;;4918516;29;20127;-93
2022/09/12 12:57:26;;;;;;;11.32;7.13;;;22.50;99.90;;;;;;4918569;29;20646;-92
2022/09/12 12:59:55;;;;;;;19.25;6.65;;;22.60;99.90;;;;;;4902207;29;20048;-93
2022/09/12 13:02:36;;;;;;;12.55;6.60;;;22.60;99.90;;;;;;4918053;29;20062;-94